createdAt,value
2023-03-21T00:01:16.470Z,99672.66
2023-03-21T00:03:52.179Z,99678.31
2023-03-21T00:06:28.607Z,99676.91
2023-03-21T00:09:02.993Z,99680.75
2023-03-21T00:11:31.139Z,99661.88
2023-03-21T00:14:14.744Z,99674.78
2023-03-21T00:16:50.496Z,99666.00
2023-03-21T00:19:22.351Z,99668.91
2023-03-21T00:22:06.443Z,99665.66
2023-03-21T00:24:39.728Z,99670.94
2023-03-21T00:27:39.352Z,99662.28
2023-03-21T00:30:14.410Z,99664.31
2023-03-21T00:32:55.341Z,99665.44
2023-03-21T00:36:06.107Z,99659.63
2023-03-21T00:38:17.131Z,99651.44
2023-03-21T00:40:49.161Z,99660.16
2023-03-21T00:43:31.860Z,99661.34
2023-03-21T00:46:14.538Z,99657.38
2023-03-21T00:48:43.047Z,99653.22
2023-03-21T00:51:26.134Z,99646.19
2023-03-21T00:53:57.958Z,99648.16
2023-03-21T00:56:34.205Z,99644.91
2023-03-21T00:59:05.206Z,99640.88
2023-03-21T01:01:41.538Z,99643.38
2023-03-21T01:04:22.093Z,99640.50
2023-03-21T01:06:53.650Z,99647.88
2023-03-21T01:09:33.740Z,99649.63
2023-03-21T01:12:04.578Z,99635.84
2023-03-21T01:14:35.001Z,99640.03
2023-03-21T01:17:07.485Z,99640.94
2023-03-21T01:19:51.128Z,99638.13
2023-03-21T01:22:21.795Z,99643.47
2023-03-21T01:24:58.592Z,99644.47
2023-03-21T01:27:33.555Z,99655.63
2023-03-21T01:30:06.313Z,99644.88
2023-03-21T01:32:46.742Z,99642.34
2023-03-21T01:35:17.857Z,99638.81
2023-03-21T01:37:50.184Z,99640.66
2023-03-21T01:40:28.736Z,99639.50
2023-03-21T01:43:22.874Z,99645.84
2023-03-21T01:46:54.438Z,99649.63
2023-03-21T01:49:53.534Z,99636.53
2023-03-21T01:52:38.099Z,99630.47
2023-03-21T01:55:27.488Z,99627.25
2023-03-21T01:58:12.341Z,99623.38
2023-03-21T02:01:00.705Z,99627.19
2023-03-21T02:03:51.085Z,99622.91
2023-03-21T02:06:54.208Z,99630.09
2023-03-21T02:09:36.755Z,99632.25
2023-03-21T02:12:11.197Z,99630.63
2023-03-21T02:14:48.935Z,99628.56
2023-03-21T02:17:34.693Z,99623.53
2023-03-21T02:20:45.511Z,99618.41
2023-03-21T02:24:10.925Z,99615.66
2023-03-21T02:27:11.578Z,99616.09
2023-03-21T02:30:28.253Z,99628.47
2023-03-21T02:33:27.189Z,99625.72
2023-03-21T02:36:26.627Z,99614.72
2023-03-21T02:39:14.259Z,99612.50
2023-03-21T02:41:51.159Z,99603.47
2023-03-21T02:44:39.367Z,99608.69
2023-03-21T02:47:14.324Z,99595.72
2023-03-21T02:49:49.604Z,99598.13
2023-03-21T02:52:37.427Z,99594.41
2023-03-21T02:55:16.894Z,99604.00
2023-03-21T02:58:12.871Z,99599.44
2023-03-21T03:00:55.575Z,99602.41
2023-03-21T03:03:47.912Z,99604.88
2023-03-21T03:06:20.890Z,99597.63
2023-03-21T03:09:05.054Z,99589.50
2023-03-21T03:11:48.270Z,99594.00
2023-03-21T03:14:53.138Z,99606.06
2023-03-21T03:17:40.602Z,99612.59
2023-03-21T03:20:24.872Z,99606.59
2023-03-21T03:23:01.916Z,99611.69
2023-03-21T03:25:43.003Z,99608.97
2023-03-21T03:28:22.029Z,99610.56
2023-03-21T03:31:07.505Z,99610.09
2023-03-21T03:33:47.654Z,99595.50
2023-03-21T03:36:31.590Z,99592.28
2023-03-21T03:39:05.895Z,99605.56
2023-03-21T03:42:04.404Z,99593.72
2023-03-21T03:44:48.688Z,99599.22
2023-03-21T03:47:33.794Z,99596.63
2023-03-21T03:50:11.663Z,99598.31
2023-03-21T03:52:55.242Z,99601.06
2023-03-21T03:55:34.638Z,99599.31
2023-03-21T03:58:23.578Z,99598.31
2023-03-21T04:01:11.181Z,99595.81
2023-03-21T04:04:03.590Z,99602.16
2023-03-21T04:06:37.068Z,99608.19
2023-03-21T04:09:19.251Z,99595.25
2023-03-21T04:11:50.446Z,99596.00
2023-03-21T04:14:25.569Z,99589.50
2023-03-21T04:17:07.057Z,99598.78
2023-03-21T04:19:44.089Z,99598.09
2023-03-21T04:22:12.659Z,99599.22
2023-03-21T04:24:53.892Z,99594.53
2023-03-21T04:27:25.099Z,99593.53
2023-03-21T04:30:27.266Z,99595.44
2023-03-21T04:33:13.348Z,99604.38
2023-03-21T04:35:53.366Z,99601.94
2023-03-21T04:38:30.465Z,99597.34
2023-03-21T04:41:06.124Z,99600.63
2023-03-21T04:43:57.904Z,99610.06
2023-03-21T04:46:27.369Z,99605.41
2023-03-21T04:49:05.169Z,99614.47
2023-03-21T04:51:34.440Z,99614.28
2023-03-21T04:54:06.873Z,99607.97
2023-03-21T04:56:36.469Z,99610.50
2023-03-21T04:59:11.789Z,99607.78
2023-03-21T05:01:43.984Z,99611.28
2023-03-21T05:04:20.316Z,99611.28
2023-03-21T05:06:51.940Z,99617.72
2023-03-21T05:09:29.768Z,99617.09
2023-03-21T05:12:06.392Z,99611.66
2023-03-21T05:14:38.896Z,99621.00
2023-03-21T05:17:15.535Z,99629.50
2023-03-21T05:19:53.790Z,99623.56
2023-03-21T05:22:29.447Z,99628.34
2023-03-21T05:25:07.788Z,99631.63
2023-03-21T05:28:11.978Z,99633.25
2023-03-21T05:30:42.308Z,99636.69
2023-03-21T05:33:19.091Z,99637.78
2023-03-21T05:35:55.019Z,99634.53
2023-03-21T05:38:26.125Z,99641.03
2023-03-21T05:40:58.676Z,99632.06
2023-03-21T05:43:33.213Z,99647.19
2023-03-21T05:46:04.927Z,99632.88
2023-03-21T05:48:35.992Z,99642.28
2023-03-21T05:51:31.880Z,99645.94
2023-03-21T05:54:03.065Z,99630.53
2023-03-21T05:56:37.063Z,99635.94
2023-03-21T05:59:17.730Z,99635.97
2023-03-21T06:01:50.598Z,99647.47
2023-03-21T06:04:21.961Z,99645.03
2023-03-21T06:06:58.312Z,99641.81
2023-03-21T06:09:27.465Z,99643.09
2023-03-21T06:12:09.686Z,99636.19
2023-03-21T06:15:06.212Z,99635.59
2023-03-21T06:18:03.486Z,99639.13
2023-03-21T06:20:32.433Z,99636.22
2023-03-21T06:23:11.177Z,99643.00
2023-03-21T06:25:48.860Z,99640.69
2023-03-21T06:28:18.190Z,99639.59
2023-03-21T06:30:52.702Z,99643.72
2023-03-21T06:33:27.019Z,99643.63
2023-03-21T06:35:56.228Z,99646.50
2023-03-21T06:38:49.127Z,99664.47
2023-03-21T06:41:24.092Z,99659.34
2023-03-21T06:44:05.100Z,99653.69
2023-03-21T06:46:46.863Z,99660.97
2023-03-21T06:49:30.955Z,99665.53
2023-03-21T06:52:15.713Z,99661.06
2023-03-21T06:54:51.177Z,99655.94
2023-03-21T06:57:21.957Z,99665.16
2023-03-21T06:59:56.453Z,99669.41
2023-03-21T07:02:26.826Z,99664.41
2023-03-21T07:05:16.146Z,99670.19
2023-03-21T07:07:45.819Z,99663.78
2023-03-21T07:10:15.569Z,99666.34
2023-03-21T07:13:08.426Z,99664.38
2023-03-21T07:15:52.766Z,99656.19
2023-03-21T07:18:21.529Z,99658.44
2023-03-21T07:20:54.708Z,99667.03
2023-03-21T07:23:25.841Z,99669.56
2023-03-21T07:26:02.120Z,99671.53
2023-03-21T07:28:31.429Z,99661.75
2023-03-21T07:31:09.718Z,99666.63
2023-03-21T07:33:38.927Z,99661.72
2023-03-21T07:36:12.648Z,99659.63
2023-03-21T07:38:42.473Z,99662.69
2023-03-21T07:41:20.288Z,99662.06
2023-03-21T07:43:54.809Z,99660.53
2023-03-21T07:46:31.867Z,99659.66
2023-03-21T07:49:03.057Z,99655.97
2023-03-21T07:51:31.380Z,99660.41
2023-03-21T07:54:06.848Z,99654.31
2023-03-21T07:56:44.909Z,99661.06
2023-03-21T07:59:19.290Z,99658.38
2023-03-21T08:01:47.451Z,99659.22
2023-03-21T08:04:19.390Z,99651.41
2023-03-21T08:06:49.172Z,99657.03
2023-03-21T08:09:18.557Z,99659.78
2023-03-21T08:11:48.788Z,99661.16
2023-03-21T08:14:27.369Z,99646.97
2023-03-21T08:17:01.588Z,99646.78
2023-03-21T08:19:40.667Z,99652.72
2023-03-21T08:22:24.844Z,99654.59
2023-03-21T08:24:55.695Z,99655.09
2023-03-21T08:27:30.293Z,99659.16
2023-03-21T08:29:58.736Z,99663.22
2023-03-21T08:32:29.922Z,99660.81
2023-03-21T08:35:13.476Z,99653.97
2023-03-21T08:37:47.343Z,99656.19
2023-03-21T08:40:18.651Z,99651.72
2023-03-21T08:42:52.603Z,99647.19
2023-03-21T08:45:33.148Z,99652.03
2023-03-21T08:48:05.208Z,99639.44
2023-03-21T08:50:36.199Z,99651.91
2023-03-21T08:53:05.817Z,99648.50
2023-03-21T08:55:38.697Z,99646.88
2023-03-21T08:58:23.456Z,99652.06
2023-03-21T09:00:55.585Z,99641.81
2023-03-21T09:03:29.470Z,99645.88
2023-03-21T09:06:03.242Z,99649.06
2023-03-21T09:08:46.498Z,99648.00
2023-03-21T09:11:23.081Z,99654.59
2023-03-21T09:13:55.211Z,99641.00
2023-03-21T09:16:25.212Z,99646.34
2023-03-21T09:18:55.922Z,99647.88
2023-03-21T09:21:25.108Z,99640.31
2023-03-21T09:23:57.228Z,99637.97
2023-03-21T09:26:31.327Z,99632.44
2023-03-21T09:29:13.207Z,99648.00
2023-03-21T09:31:52.204Z,99644.66
2023-03-21T09:34:23.337Z,99640.66
2023-03-21T09:36:57.128Z,99636.13
2023-03-21T09:39:27.773Z,99630.91
2023-03-21T09:42:14.211Z,99633.75
2023-03-21T09:45:08.923Z,99634.63
2023-03-21T09:47:51.695Z,99631.06
2023-03-21T09:50:29.461Z,99622.00
2023-03-21T09:53:02.119Z,99617.13
2023-03-21T09:55:43.733Z,99619.13
2023-03-21T09:58:28.650Z,99621.16
2023-03-21T10:01:11.294Z,99609.03
2023-03-21T10:03:44.081Z,99617.97
2023-03-21T10:06:24.590Z,99630.41
2023-03-21T10:08:55.472Z,99605.41
2023-03-21T10:11:28.134Z,99604.19
2023-03-21T10:14:07.374Z,99606.72
2023-03-21T10:16:46.767Z,99610.03
2023-03-21T10:19:25.295Z,99593.59
2023-03-21T10:22:01.338Z,99598.38
2023-03-21T10:24:36.979Z,99595.88
2023-03-21T10:27:08.673Z,99584.13
2023-03-21T10:29:43.967Z,99587.53
2023-03-21T10:32:29.635Z,99597.16
2023-03-21T10:35:04.877Z,99584.19
2023-03-21T10:37:36.407Z,99596.34
2023-03-21T10:40:06.671Z,99584.69
2023-03-21T10:42:37.263Z,99592.78
2023-03-21T10:45:23.552Z,99606.47
2023-03-21T10:47:55.751Z,99599.16
2023-03-21T10:50:31.265Z,99602.19
2023-03-21T10:53:09.017Z,99593.91
2023-03-21T10:55:42.107Z,99586.41
2023-03-21T10:58:25.249Z,99596.13
2023-03-21T11:00:59.373Z,99583.66
2023-03-21T11:03:37.797Z,99582.00
2023-03-21T11:06:19.842Z,99583.22
2023-03-21T11:08:50.977Z,99576.19
2023-03-21T11:11:31.387Z,99570.09
2023-03-21T11:14:09.749Z,99564.66
2023-03-21T11:16:42.730Z,99572.34
2023-03-21T11:19:37.224Z,99581.94
2023-03-21T11:22:08.401Z,99572.34
2023-03-21T11:24:46.418Z,99553.19
2023-03-21T11:27:23.224Z,99567.81
2023-03-21T11:29:55.315Z,99556.34
2023-03-21T11:32:30.280Z,99542.13
2023-03-21T11:35:21.302Z,99548.75
2023-03-21T11:37:57.114Z,99534.19
2023-03-21T11:40:28.752Z,99542.19
2023-03-21T11:42:59.792Z,99548.06
2023-03-21T11:45:31.214Z,99539.66
2023-03-21T11:48:02.607Z,99523.72
2023-03-21T11:50:40.113Z,99529.47
2023-03-21T11:53:27.217Z,99529.69
2023-03-21T11:56:22.352Z,99512.28
2023-03-21T11:59:04.802Z,99512.56
2023-03-21T12:01:43.929Z,99500.63
2023-03-21T12:04:27.341Z,99504.34
2023-03-21T12:07:06.897Z,99496.97
2023-03-21T12:09:41.626Z,99488.06
2023-03-21T12:12:38.258Z,99491.94
2023-03-21T12:15:14.637Z,99478.53
2023-03-21T12:17:54.259Z,99478.34
2023-03-21T12:20:42.862Z,99465.13
2023-03-21T12:23:47.730Z,99491.50
2023-03-21T12:26:24.408Z,99472.75
2023-03-21T12:29:47.138Z,99477.41
2023-03-21T12:32:38.396Z,99468.47
2023-03-21T12:35:19.937Z,99463.63
2023-03-21T12:37:59.111Z,99465.22
2023-03-21T12:41:06.538Z,99451.25
2023-03-21T12:43:55.333Z,99461.81
2023-03-21T12:46:35.278Z,99467.38
2023-03-21T12:49:09.352Z,99464.53
2023-03-21T12:51:51.268Z,99440.09
2023-03-21T12:54:28.022Z,99450.25
2023-03-21T12:57:26.228Z,99441.50
2023-03-21T13:00:09.776Z,99439.28
2023-03-21T13:02:42.819Z,99432.31
2023-03-21T13:05:22.777Z,99435.75
2023-03-21T13:07:58.530Z,99434.84
2023-03-21T13:10:29.442Z,99425.28
2023-03-21T13:13:21.046Z,99432.03
2023-03-21T13:16:35.223Z,99424.97
2023-03-21T13:19:08.732Z,99415.13
2023-03-21T13:21:50.636Z,99408.34
2023-03-21T13:24:30.758Z,99418.28
2023-03-21T13:27:04.316Z,99413.53
2023-03-21T13:29:49.387Z,99412.72
2023-03-21T13:32:24.653Z,99405.94
2023-03-21T13:35:00.158Z,99411.94
2023-03-21T13:37:32.745Z,99403.13
2023-03-21T13:40:26.119Z,99404.63
2023-03-21T13:42:59.351Z,99400.53
2023-03-21T13:45:52.914Z,99401.38
2023-03-21T13:48:29.624Z,99398.56
2023-03-21T13:51:04.585Z,99397.09
2023-03-21T13:53:34.901Z,99407.88
2023-03-21T13:56:26.697Z,99389.75
2023-03-21T13:59:05.060Z,99396.16
2023-03-21T14:02:00.652Z,99392.53
2023-03-21T14:04:41.914Z,99384.09
2023-03-21T14:07:23.186Z,99380.28
2023-03-21T14:10:00.302Z,99387.03
2023-03-21T14:12:31.878Z,99386.88
2023-03-21T14:15:14.006Z,99380.84
2023-03-21T14:17:52.915Z,99374.34
2023-03-21T14:20:35.846Z,99375.56
2023-03-21T14:23:06.624Z,99390.50
2023-03-21T14:25:47.559Z,99382.06
2023-03-21T14:28:21.795Z,99379.72
2023-03-21T14:30:53.802Z,99375.09
2023-03-21T14:33:28.156Z,99372.94
2023-03-21T14:35:59.816Z,99377.69
2023-03-21T14:38:30.097Z,99367.84
2023-03-21T14:41:02.434Z,99363.09
2023-03-21T14:43:37.599Z,99363.38
2023-03-21T14:46:07.588Z,99358.19
2023-03-21T14:48:44.769Z,99350.78
2023-03-21T14:51:15.327Z,99347.03
2023-03-21T14:53:46.156Z,99359.59
2023-03-21T14:56:20.014Z,99344.63
2023-03-21T14:58:49.474Z,99354.28
2023-03-21T15:01:25.930Z,99343.13
2023-03-21T15:04:01.574Z,99344.22
2023-03-21T15:06:32.491Z,99353.84
2023-03-21T15:09:04.770Z,99342.72
2023-03-21T15:11:37.012Z,99343.41
2023-03-21T15:14:06.856Z,99349.84
2023-03-21T15:16:44.406Z,99347.00
2023-03-21T15:19:24.153Z,99340.09
2023-03-21T15:21:59.768Z,99342.22
2023-03-21T15:24:32.819Z,99340.09
2023-03-21T15:27:04.681Z,99331.75
2023-03-21T15:29:35.645Z,99348.22
2023-03-21T15:32:30.127Z,99342.31
2023-03-21T15:35:09.735Z,99340.03
2023-03-21T15:37:39.373Z,99331.69
2023-03-21T15:40:15.529Z,99347.56
2023-03-21T15:42:46.496Z,99339.22
2023-03-21T15:45:25.712Z,99337.69
2023-03-21T15:47:56.730Z,99342.88
2023-03-21T15:50:39.029Z,99325.88
2023-03-21T15:53:17.960Z,99338.13
2023-03-21T15:55:53.219Z,99335.91
2023-03-21T15:58:27.522Z,99331.81
2023-03-21T16:01:06.515Z,99337.56
2023-03-21T16:03:49.135Z,99322.88
2023-03-21T16:06:33.808Z,99328.81
2023-03-21T16:09:11.664Z,99327.72
2023-03-21T16:11:50.324Z,99325.28
2023-03-21T16:14:22.073Z,99329.50
2023-03-21T16:16:51.447Z,99326.59
2023-03-21T16:19:20.930Z,99327.59
2023-03-21T16:21:53.012Z,99335.22
2023-03-21T16:24:24.322Z,99324.94
2023-03-21T16:27:02.319Z,99324.44
2023-03-21T16:29:31.416Z,99330.50
2023-03-21T16:32:09.674Z,99326.59
2023-03-21T16:34:41.582Z,99330.78
2023-03-21T16:37:30.320Z,99342.22
2023-03-21T16:40:01.729Z,99335.06
2023-03-21T16:42:38.016Z,99331.06
2023-03-21T16:45:17.921Z,99330.59
2023-03-21T16:47:49.524Z,99338.84
2023-03-21T16:50:30.251Z,99339.41
2023-03-21T16:53:10.638Z,99333.66
2023-03-21T16:55:40.374Z,99328.38
2023-03-21T16:58:15.418Z,99334.91
2023-03-21T17:00:50.660Z,99331.81
2023-03-21T17:03:21.641Z,99341.66
2023-03-21T17:05:54.642Z,99335.09
2023-03-21T17:08:40.052Z,99340.19
2023-03-21T17:11:10.833Z,99338.63
2023-03-21T17:13:55.745Z,99335.16
2023-03-21T17:16:27.114Z,99343.81
2023-03-21T17:19:03.453Z,99345.94
2023-03-21T17:21:35.914Z,99339.88
2023-03-21T17:24:09.060Z,99348.31
2023-03-21T17:26:40.669Z,99342.88
2023-03-21T17:29:22.229Z,99344.38
2023-03-21T17:31:59.716Z,99344.97
2023-03-21T17:34:39.032Z,99352.72
2023-03-21T17:37:12.898Z,99343.44
2023-03-21T17:39:56.896Z,99348.78
2023-03-21T17:42:47.720Z,99345.59
2023-03-21T17:45:23.379Z,99355.94
2023-03-21T17:48:12.151Z,99364.19
2023-03-21T17:50:54.085Z,99354.06
2023-03-21T17:53:30.116Z,99354.66
2023-03-21T17:56:02.612Z,99355.63
2023-03-21T17:58:39.712Z,99348.78
2023-03-21T18:01:26.695Z,99354.50
2023-03-21T18:04:06.250Z,99350.88
2023-03-21T18:06:39.334Z,99355.47
2023-03-21T18:09:15.291Z,99353.78
2023-03-21T18:11:54.798Z,99353.31
2023-03-21T18:14:31.991Z,99356.06
2023-03-21T18:17:04.274Z,99364.19
2023-03-21T18:19:43.242Z,99371.03
2023-03-21T18:22:20.439Z,99367.03
2023-03-21T18:24:56.629Z,99369.91
2023-03-21T18:27:33.512Z,99363.47
2023-03-21T18:30:32.865Z,99371.00
2023-03-21T18:33:02.005Z,99371.22
2023-03-21T18:35:34.403Z,99371.22
2023-03-21T18:38:13.883Z,99370.94
2023-03-21T18:40:52.703Z,99380.13
2023-03-21T18:46:40.081Z,99378.22
2023-03-21T18:50:02.073Z,99379.59
2023-03-21T18:52:26.907Z,99370.22
2023-03-21T18:55:01.391Z,99381.72
2023-03-21T18:57:39.315Z,99384.53
2023-03-21T19:00:34.581Z,99386.22
2023-03-21T19:03:26.982Z,99373.97
2023-03-21T19:06:07.674Z,99386.41
2023-03-21T19:08:53.489Z,99377.19
2023-03-21T19:11:46.285Z,99383.56
2023-03-21T19:14:21.964Z,99368.06
2023-03-21T19:20:20.270Z,99390.91
2023-03-21T19:23:09.491Z,99385.03
2023-03-21T19:25:57.607Z,99389.75
2023-03-21T19:28:33.994Z,99381.72
2023-03-21T19:31:29.260Z,99386.75
2023-03-21T19:34:29.895Z,99383.09
2023-03-21T19:37:08.661Z,99388.84
2023-03-21T19:39:40.636Z,99380.78
2023-03-21T19:42:16.940Z,99378.44
2023-03-21T19:45:06.623Z,99378.41
2023-03-21T19:47:49.550Z,99367.50
2023-03-21T19:51:13.408Z,99375.06
2023-03-21T19:53:24.621Z,99377.25
2023-03-21T19:56:23.105Z,99382.66
2023-03-21T19:59:04.289Z,99388.53
2023-03-21T20:01:48.579Z,99391.19
2023-03-21T20:04:20.807Z,99387.84
2023-03-21T20:07:24.825Z,99386.66
2023-03-21T20:10:07.700Z,99385.34
2023-03-21T20:12:50.456Z,99390.69
2023-03-21T20:15:31.406Z,99390.53
2023-03-21T20:18:15.101Z,99393.38
2023-03-21T20:20:56.651Z,99391.69
2023-03-21T20:23:44.166Z,99395.53
2023-03-21T20:26:19.203Z,99402.25
2023-03-21T20:30:03.835Z,99401.59
2023-03-21T20:32:12.629Z,99401.41
2023-03-21T20:35:05.595Z,99403.09
2023-03-21T20:37:53.433Z,99398.56
2023-03-21T20:40:41.349Z,99412.75
2023-03-21T20:43:52.131Z,99410.91
2023-03-21T20:46:05.620Z,99410.94
2023-03-21T20:48:43.983Z,99421.69
2023-03-21T20:54:18.787Z,99430.22
2023-03-21T20:57:04.227Z,99427.53
2023-03-21T20:59:36.376Z,99423.34
2023-03-21T21:02:08.615Z,99417.44
2023-03-21T21:05:17.711Z,99422.31
2023-03-21T21:07:55.612Z,99420.84
2023-03-21T21:10:33.519Z,99418.13
2023-03-21T21:13:34.659Z,99421.66
2023-03-21T21:16:05.724Z,99423.50
2023-03-21T21:18:40.204Z,99424.53
2023-03-21T21:21:20.967Z,99416.97
2023-03-21T21:23:51.651Z,99410.59
2023-03-21T21:26:23.459Z,99414.44
2023-03-21T21:28:58.460Z,99413.94
2023-03-21T21:31:45.049Z,99408.78
2023-03-21T21:34:18.830Z,99407.59
2023-03-21T21:36:52.845Z,99409.78
2023-03-21T21:39:32.820Z,99405.91
2023-03-21T21:42:17.702Z,99400.72
2023-03-21T21:44:53.039Z,99396.34
2023-03-21T21:47:24.002Z,99400.22
2023-03-21T21:49:58.402Z,99406.06
2023-03-21T21:52:32.255Z,99402.72
2023-03-21T21:55:04.177Z,99407.94
2023-03-21T21:57:44.101Z,99404.44
2023-03-21T22:00:22.982Z,99404.59
2023-03-21T22:03:02.099Z,99403.25
2023-03-21T22:05:33.464Z,99403.91
2023-03-21T22:08:02.793Z,99402.91
2023-03-21T22:10:36.741Z,99404.25
2023-03-21T22:13:08.972Z,99399.06
2023-03-21T22:15:53.208Z,99411.44
2023-03-21T22:18:23.833Z,99399.38
2023-03-21T22:20:56.605Z,99413.63
2023-03-21T22:23:33.972Z,99413.63
2023-03-21T22:26:08.231Z,99417.63
2023-03-21T22:28:40.531Z,99419.00
2023-03-21T22:31:13.548Z,99417.63
2023-03-21T22:33:42.076Z,99413.16
2023-03-21T22:36:22.821Z,99408.59
2023-03-21T22:39:00.068Z,99418.16
2023-03-21T22:41:32.386Z,99402.56
2023-03-21T22:44:01.013Z,99406.59
2023-03-21T22:46:38.357Z,99407.75
2023-03-21T22:49:17.777Z,99405.25
2023-03-21T22:51:50.530Z,99403.25
2023-03-21T22:54:23.388Z,99405.75
2023-03-21T22:56:54.305Z,99405.41
2023-03-21T22:59:23.174Z,99407.63
2023-03-21T23:02:07.123Z,99407.75
2023-03-21T23:04:37.864Z,99416.13
2023-03-21T23:07:07.450Z,99418.94
2023-03-21T23:09:45.197Z,99416.59
2023-03-21T23:12:16.932Z,99410.22
2023-03-21T23:14:47.525Z,99414.28
2023-03-21T23:17:20.958Z,99416.59
2023-03-21T23:19:49.657Z,99417.75
2023-03-21T23:22:27.155Z,99418.63
2023-03-21T23:25:02.169Z,99417.44
2023-03-21T23:27:35.836Z,99416.06
2023-03-21T23:30:09.180Z,99418.94
2023-03-21T23:32:43.862Z,99412.38
2023-03-21T23:35:21.634Z,99416.09
2023-03-21T23:38:01.990Z,99418.75
2023-03-21T23:40:41.399Z,99409.47
2023-03-21T23:43:12.807Z,99407.28
2023-03-21T23:45:42.818Z,99403.16
2023-03-21T23:48:13.760Z,99408.53
2023-03-21T23:50:42.668Z,99407.53
2023-03-21T23:53:11.919Z,99414.03
2023-03-21T23:55:45.038Z,99407.81
2023-03-21T23:58:22.113Z,99399.97
